createdAt,value
2022-10-30T00:02:14.331Z,86.07
2022-10-30T00:05:17.791Z,92.83
2022-10-30T00:08:22.504Z,95.53
2022-10-30T00:11:25.130Z,96.35
2022-10-30T00:14:27.492Z,90.10
2022-10-30T00:17:29.838Z,105.40
2022-10-30T00:20:32.447Z,98.47
2022-10-30T00:23:34.805Z,102.72
2022-10-30T00:26:37.193Z,107.15
2022-10-30T00:29:39.638Z,104.25
2022-10-30T00:32:42.934Z,96.78
2022-10-30T00:35:49.379Z,99.17
2022-10-30T00:38:52.023Z,91.75
2022-10-30T00:41:56.018Z,95.78
2022-10-30T00:44:58.638Z,84.45
2022-10-30T00:48:03.842Z,84.72
2022-10-30T00:51:10.816Z,87.93
2022-10-30T00:54:16.154Z,90.10
2022-10-30T00:57:19.811Z,77.65
2022-10-30T01:00:24.451Z,81.65
2022-10-30T01:03:29.497Z,86.00
2022-10-30T01:06:38.646Z,82.33
2022-10-30T01:09:41.731Z,87.80
2022-10-30T01:12:46.262Z,88.43
2022-10-30T01:16:29.989Z,91.15
2022-10-30T01:23:26.349Z,90.87
2022-10-30T01:27:06.606Z,98.88
2022-10-30T01:30:38.718Z,92.03
2022-10-30T01:33:47.501Z,89.75
2022-10-30T01:37:18.641Z,92.55
2022-10-30T01:40:21.300Z,90.43
2022-10-30T01:43:23.859Z,91.63
2022-10-30T01:46:47.942Z,92.63
2022-10-30T01:50:02.447Z,92.57
2022-10-30T01:53:27.280Z,96.90
2022-10-30T01:56:32.521Z,98.70
2022-10-30T01:59:44.626Z,106.20
2022-10-30T02:02:49.763Z,107.45
2022-10-30T02:05:55.669Z,109.78
2022-10-30T02:08:59.609Z,113.05
2022-10-30T02:12:02.759Z,99.63
2022-10-30T02:15:07.217Z,100.05
2022-10-30T02:18:11.719Z,107.63
2022-10-30T02:21:15.618Z,103.45
2022-10-30T02:24:19.362Z,100.20
2022-10-30T02:27:21.701Z,115.90
2022-10-30T02:30:24.230Z,119.32
2022-10-30T02:33:26.611Z,122.43
2022-10-30T02:36:29.065Z,140.20
2022-10-30T02:39:31.501Z,130.35
2022-10-30T02:42:34.936Z,129.13
2022-10-30T02:45:37.374Z,140.00
2022-10-30T02:48:40.032Z,128.43
2022-10-30T02:51:43.932Z,125.80
2022-10-30T02:54:47.901Z,129.43
2022-10-30T02:57:50.255Z,114.93
2022-10-30T03:00:53.505Z,114.53
2022-10-30T03:03:55.910Z,97.85
2022-10-30T03:06:58.687Z,101.10
2022-10-30T03:10:01.159Z,100.15
2022-10-30T03:13:05.134Z,91.93
2022-10-30T03:16:11.331Z,97.68
2022-10-30T03:19:13.733Z,104.40
2022-10-30T03:22:16.183Z,96.95
2022-10-30T03:25:23.778Z,98.30
2022-10-30T03:28:31.649Z,108.90
2022-10-30T03:31:34.173Z,97.50
2022-10-30T03:34:52.459Z,81.32
2022-10-30T03:38:01.098Z,86.43
2022-10-30T03:41:04.145Z,94.38
2022-10-30T03:44:06.541Z,99.00
2022-10-30T03:47:08.926Z,93.82
2022-10-30T03:50:16.036Z,103.05
2022-10-30T03:53:18.497Z,97.07
2022-10-30T03:56:20.859Z,100.13
2022-10-30T03:59:27.286Z,99.23
2022-10-30T04:02:50.277Z,94.18
2022-10-30T04:05:55.834Z,99.80
2022-10-30T04:08:58.538Z,93.13
2022-10-30T04:12:01.034Z,88.63
2022-10-30T04:15:04.478Z,97.63
2022-10-30T04:18:07.394Z,94.07
2022-10-30T04:21:10.613Z,94.82
2022-10-30T04:24:16.138Z,95.80
2022-10-30T04:27:20.420Z,97.53
2022-10-30T04:30:25.137Z,88.90
2022-10-30T04:33:28.739Z,95.85
2022-10-30T04:36:35.404Z,86.70
2022-10-30T04:39:42.277Z,91.15
2022-10-30T04:42:53.061Z,92.53
2022-10-30T04:45:55.858Z,87.03
2022-10-30T04:48:58.257Z,84.18
2022-10-30T04:52:00.957Z,90.50
2022-10-30T04:55:03.861Z,86.97
2022-10-30T04:58:08.160Z,78.20
2022-10-30T05:01:13.243Z,77.83
2022-10-30T05:04:15.653Z,78.70
2022-10-30T05:07:18.797Z,75.30
2022-10-30T05:10:21.207Z,77.93
2022-10-30T05:13:23.751Z,79.65
2022-10-30T05:16:26.136Z,83.93
2022-10-30T05:19:30.417Z,76.40
2022-10-30T05:22:33.396Z,84.00
2022-10-30T05:25:35.748Z,78.22
2022-10-30T05:28:41.131Z,82.22
2022-10-30T05:31:44.043Z,75.00
2022-10-30T05:35:06.550Z,84.45
2022-10-30T05:38:10.335Z,90.35
2022-10-30T05:41:13.440Z,82.40
2022-10-30T05:44:28.902Z,74.90
2022-10-30T05:47:38.533Z,78.10
2022-10-30T05:50:41.699Z,78.78
2022-10-30T05:54:01.188Z,73.38
2022-10-30T05:57:05.083Z,56.80
2022-10-30T06:00:11.534Z,53.97
2022-10-30T06:03:17.756Z,58.07
2022-10-30T06:06:21.341Z,50.42
2022-10-30T06:09:23.759Z,51.17
2022-10-30T06:12:53.202Z,54.55
2022-10-30T06:16:11.524Z,50.55
2022-10-30T06:19:34.406Z,56.97
2022-10-30T06:23:10.827Z,54.20
2022-10-30T06:26:23.908Z,52.47
2022-10-30T06:29:29.126Z,54.65
2022-10-30T06:32:31.475Z,52.67
2022-10-30T06:35:34.299Z,54.20
2022-10-30T06:38:36.828Z,50.53
2022-10-30T06:41:39.387Z,57.45
2022-10-30T06:45:05.317Z,54.67
2022-10-30T06:48:09.561Z,54.35
2022-10-30T06:51:17.093Z,56.40
2022-10-30T06:54:20.737Z,54.08
2022-10-30T06:57:35.522Z,58.28
2022-10-30T07:01:03.990Z,57.70
2022-10-30T07:04:32.550Z,55.22
2022-10-30T07:07:35.063Z,60.17
2022-10-30T07:10:38.004Z,40.53
2022-10-30T07:14:03.221Z,48.50
2022-10-30T07:17:18.385Z,45.05
2022-10-30T07:20:28.506Z,48.45
2022-10-30T07:23:30.826Z,57.53
2022-10-30T07:26:53.450Z,38.22
2022-10-30T07:30:06.654Z,42.38
2022-10-30T07:33:16.688Z,40.25
2022-10-30T07:36:33.838Z,35.15
2022-10-30T07:39:39.500Z,36.60
2022-10-30T07:42:58.695Z,32.53
2022-10-30T07:46:17.508Z,32.30
2022-10-30T07:49:38.705Z,28.58
2022-10-30T07:52:43.035Z,25.60
2022-10-30T07:55:45.527Z,23.27
2022-10-30T07:59:06.441Z,22.35
2022-10-30T08:02:32.649Z,22.55
2022-10-30T08:05:49.348Z,24.75
2022-10-30T08:09:07.307Z,26.08
2022-10-30T08:12:10.005Z,19.67
2022-10-30T08:15:12.557Z,19.77
2022-10-30T08:18:15.293Z,16.35
2022-10-30T08:21:18.661Z,20.30
2022-10-30T08:24:31.473Z,18.30
2022-10-30T08:27:35.365Z,17.93
2022-10-30T08:30:39.047Z,19.50
2022-10-30T08:33:51.073Z,18.80
2022-10-30T08:37:07.958Z,17.45
2022-10-30T08:40:11.428Z,18.95
2022-10-30T08:43:38.907Z,18.00
2022-10-30T08:46:41.239Z,17.25
2022-10-30T08:49:43.906Z,15.85
2022-10-30T08:52:50.721Z,18.13
2022-10-30T08:55:56.766Z,18.88
2022-10-30T08:59:09.501Z,16.67
2022-10-30T09:02:12.418Z,19.10
2022-10-30T09:05:33.225Z,16.63
2022-10-30T09:09:04.813Z,16.05
2022-10-30T09:12:17.959Z,15.30
2022-10-30T09:15:22.354Z,17.23
2022-10-30T09:18:30.652Z,21.73
2022-10-30T09:21:33.674Z,21.23
2022-10-30T09:24:37.420Z,21.13
2022-10-30T09:28:00.001Z,15.45
2022-10-30T09:31:08.523Z,16.27
2022-10-30T09:34:13.722Z,15.82
2022-10-30T09:37:37.266Z,18.95
2022-10-30T09:40:54.761Z,20.83
2022-10-30T09:44:15.444Z,21.42
2022-10-30T09:47:23.476Z,21.33
2022-10-30T09:50:35.710Z,19.60
2022-10-30T09:54:09.065Z,18.70
2022-10-30T09:57:29.761Z,20.70
2022-10-30T10:00:38.991Z,17.20
2022-10-30T10:04:03.901Z,20.57
2022-10-30T10:07:32.974Z,17.30
2022-10-30T10:11:00.286Z,22.02
2022-10-30T10:14:31.498Z,17.55
2022-10-30T10:17:37.519Z,23.17
2022-10-30T10:20:43.594Z,24.87
2022-10-30T10:23:51.348Z,25.88
2022-10-30T10:27:13.124Z,19.92
2022-10-30T10:30:21.330Z,22.13
2022-10-30T10:33:45.614Z,22.20
2022-10-30T10:37:16.112Z,21.70
2022-10-30T10:40:22.110Z,23.23
2022-10-30T10:43:50.446Z,22.02
2022-10-30T10:47:17.672Z,20.30
2022-10-30T10:50:27.294Z,21.08
2022-10-30T10:53:40.722Z,23.00
2022-10-30T10:56:46.535Z,23.20
2022-10-30T10:59:55.161Z,25.92
2022-10-30T11:03:07.394Z,19.85
2022-10-30T11:06:32.602Z,17.00
2022-10-30T11:09:35.163Z,22.40
2022-10-30T11:12:37.673Z,19.67
2022-10-30T11:15:50.346Z,21.30
2022-10-30T11:18:58.051Z,19.52
2022-10-30T11:22:01.253Z,22.80
2022-10-30T11:25:26.933Z,27.40
2022-10-30T11:28:38.491Z,22.35
2022-10-30T11:31:43.205Z,18.17
2022-10-30T11:34:45.569Z,32.75
2022-10-30T11:38:12.238Z,34.35
2022-10-30T11:41:15.073Z,40.27
2022-10-30T11:44:17.513Z,29.88
2022-10-30T11:47:27.591Z,26.95
2022-10-30T11:50:31.767Z,17.20
2022-10-30T11:53:42.817Z,17.77
2022-10-30T11:56:49.091Z,15.27
2022-10-30T11:59:58.220Z,14.85
2022-10-30T12:03:06.262Z,15.65
2022-10-30T12:06:22.973Z,16.45
2022-10-30T12:09:25.330Z,18.50
2022-10-30T12:12:33.033Z,20.87
2022-10-30T12:15:37.389Z,17.58
2022-10-30T12:18:40.540Z,16.63
2022-10-30T12:21:48.826Z,19.27
2022-10-30T12:24:52.405Z,18.58
2022-10-30T12:28:00.724Z,22.67
2022-10-30T12:31:08.917Z,18.85
2022-10-30T12:34:46.551Z,16.10
2022-10-30T12:37:50.743Z,17.13
2022-10-30T12:41:08.388Z,17.65
2022-10-30T12:44:21.096Z,18.60
2022-10-30T12:47:32.979Z,16.48
2022-10-30T12:50:45.159Z,19.15
2022-10-30T12:54:19.514Z,21.70
2022-10-30T12:57:32.955Z,19.65
2022-10-30T13:00:52.100Z,19.13
2022-10-30T13:04:09.396Z,18.08
2022-10-30T13:07:38.597Z,26.70
2022-10-30T13:10:53.874Z,25.23
2022-10-30T13:14:00.163Z,21.02
2022-10-30T13:17:02.834Z,26.40
2022-10-30T13:20:14.045Z,18.38
2022-10-30T13:23:25.049Z,20.50
2022-10-30T13:26:33.360Z,18.98
2022-10-30T13:29:50.629Z,22.65
2022-10-30T13:33:22.021Z,26.17
2022-10-30T13:36:34.036Z,19.85
2022-10-30T13:39:52.436Z,22.20
2022-10-30T13:43:06.595Z,22.17
2022-10-30T13:46:39.726Z,18.63
2022-10-30T13:50:09.811Z,14.90
2022-10-30T13:53:22.250Z,18.90
2022-10-30T13:56:24.746Z,20.00
2022-10-30T13:59:48.464Z,17.38
2022-10-30T14:02:53.638Z,15.65
2022-10-30T14:06:10.094Z,21.27
2022-10-30T14:09:21.558Z,25.20
2022-10-30T14:12:52.908Z,21.30
2022-10-30T14:16:06.554Z,29.88
2022-10-30T14:19:16.903Z,28.52
2022-10-30T14:22:25.245Z,25.13
2022-10-30T14:25:27.587Z,29.58
2022-10-30T14:28:31.960Z,19.52
2022-10-30T14:31:36.556Z,18.38
2022-10-30T14:34:46.125Z,18.15
2022-10-30T14:37:58.293Z,14.20
2022-10-30T14:41:22.409Z,18.48
2022-10-30T14:44:49.757Z,56.95
2022-10-30T14:47:58.028Z,50.72
2022-10-30T14:51:14.349Z,57.25
2022-10-30T14:54:31.806Z,23.53
2022-10-30T14:57:53.757Z,16.38
2022-10-30T15:01:21.077Z,19.52
2022-10-30T15:04:32.474Z,18.88
2022-10-30T15:07:52.170Z,16.98
2022-10-30T15:11:42.008Z,20.60
2022-10-30T15:14:54.809Z,18.33
2022-10-30T15:18:01.393Z,19.90
2022-10-30T15:21:06.585Z,36.13
2022-10-30T15:24:18.966Z,35.15
2022-10-30T15:27:24.356Z,25.30
2022-10-30T15:30:27.652Z,27.15
2022-10-30T15:33:35.431Z,22.25
2022-10-30T15:36:42.978Z,70.50
2022-10-30T15:39:45.329Z,60.10
2022-10-30T15:42:49.716Z,23.80
2022-10-30T15:45:55.024Z,24.27
2022-10-30T15:48:57.629Z,39.90
2022-10-30T15:52:03.075Z,21.48
2022-10-30T15:55:09.692Z,30.40
2022-10-30T15:58:17.516Z,29.27
2022-10-30T16:01:25.364Z,53.45
2022-10-30T16:04:35.700Z,81.90
2022-10-30T16:07:46.034Z,74.38
2022-10-30T16:10:50.021Z,62.15
2022-10-30T16:13:52.889Z,90.17
2022-10-30T16:16:59.833Z,70.97
2022-10-30T16:20:04.057Z,44.20
2022-10-30T16:23:07.384Z,77.60
2022-10-30T16:26:25.401Z,44.97
2022-10-30T16:29:29.908Z,24.90
2022-10-30T16:32:32.476Z,48.22
2022-10-30T16:35:34.939Z,40.00
2022-10-30T16:38:38.259Z,49.97
2022-10-30T16:41:40.742Z,64.85
2022-10-30T16:44:43.439Z,42.50
2022-10-30T16:48:08.448Z,18.60
2022-10-30T16:51:16.402Z,17.85
2022-10-30T16:54:26.074Z,18.35
2022-10-30T16:57:35.039Z,17.88
2022-10-30T17:00:40.055Z,20.43
2022-10-30T17:03:42.849Z,16.17
2022-10-30T17:06:45.694Z,18.20
2022-10-30T17:09:50.076Z,19.60
2022-10-30T17:13:12.927Z,20.25
2022-10-30T17:16:27.016Z,20.80
2022-10-30T17:19:32.759Z,25.77
2022-10-30T17:22:35.438Z,25.58
2022-10-30T17:25:39.395Z,23.55
2022-10-30T17:28:42.975Z,27.27
2022-10-30T17:31:45.538Z,17.83
2022-10-30T17:34:57.757Z,20.75
2022-10-30T17:38:03.150Z,21.75
2022-10-30T17:41:07.042Z,21.33
2022-10-30T17:44:19.635Z,17.27
2022-10-30T17:47:23.746Z,18.33
2022-10-30T17:50:26.421Z,17.27
2022-10-30T17:53:29.020Z,19.83
2022-10-30T17:56:33.485Z,20.75
2022-10-30T17:59:36.128Z,22.30
2022-10-30T18:02:41.285Z,20.33
2022-10-30T18:05:44.697Z,20.17
2022-10-30T18:08:50.558Z,29.45
2022-10-30T18:11:53.458Z,27.90
2022-10-30T18:14:56.200Z,28.85
2022-10-30T18:17:58.898Z,34.37
2022-10-30T18:21:01.397Z,47.47
2022-10-30T18:24:10.449Z,50.85
2022-10-30T18:27:13.077Z,34.67
2022-10-30T18:30:16.042Z,38.45
2022-10-30T18:33:18.688Z,33.70
2022-10-30T18:36:23.974Z,56.22
2022-10-30T18:39:26.399Z,52.30
2022-10-30T18:42:28.788Z,47.08
2022-10-30T18:45:37.537Z,45.10
2022-10-30T18:48:40.877Z,41.53
2022-10-30T18:51:43.457Z,40.25
2022-10-30T18:54:46.015Z,57.58
2022-10-30T18:57:50.356Z,50.55
2022-10-30T19:01:11.070Z,54.45
2022-10-30T19:04:18.010Z,74.40
2022-10-30T19:07:24.316Z,55.60
2022-10-30T19:10:29.438Z,54.22
2022-10-30T19:13:32.480Z,48.35
2022-10-30T19:16:34.944Z,56.60
2022-10-30T19:19:37.561Z,49.40
2022-10-30T19:22:40.610Z,50.60
2022-10-30T19:25:44.451Z,52.38
2022-10-30T19:28:48.167Z,48.65
2022-10-30T19:31:50.778Z,38.88
2022-10-30T19:34:53.398Z,34.13
2022-10-30T19:37:56.547Z,35.75
2022-10-30T19:41:00.125Z,33.30
2022-10-30T19:44:02.792Z,37.10
2022-10-30T19:47:05.338Z,40.38
2022-10-30T19:50:35.136Z,39.87
2022-10-30T19:53:38.316Z,40.53
2022-10-30T19:56:43.414Z,40.75
2022-10-30T19:59:46.116Z,42.40
2022-10-30T20:02:48.819Z,45.28
2022-10-30T20:05:51.466Z,48.87
2022-10-30T20:08:54.045Z,46.22
2022-10-30T20:11:56.742Z,47.83
2022-10-30T20:14:59.325Z,47.45
2022-10-30T20:18:16.340Z,46.47
2022-10-30T20:21:19.350Z,47.03
2022-10-30T20:24:23.125Z,44.83
2022-10-30T20:27:26.564Z,49.45
2022-10-30T20:30:29.541Z,47.05
2022-10-30T20:33:32.452Z,47.97
2022-10-30T20:36:34.785Z,46.13
2022-10-30T20:39:37.328Z,46.75
2022-10-30T20:42:40.517Z,44.53
2022-10-30T20:45:43.116Z,40.55
2022-10-30T20:48:45.861Z,37.30
2022-10-30T20:51:48.444Z,39.70
2022-10-30T20:54:50.946Z,38.75
2022-10-30T20:57:53.458Z,36.75
2022-10-30T21:00:59.359Z,33.25
2022-10-30T21:04:02.440Z,31.55
2022-10-30T21:07:04.945Z,30.47
2022-10-30T21:10:07.541Z,34.35
2022-10-30T21:13:11.612Z,34.20
2022-10-30T21:16:14.277Z,35.13
2022-10-30T21:19:16.846Z,37.42
2022-10-30T21:22:19.420Z,34.33
2022-10-30T21:25:21.763Z,36.97
2022-10-30T21:28:24.175Z,39.25
2022-10-30T21:31:26.777Z,39.60
2022-10-30T21:34:29.163Z,42.67
2022-10-30T21:37:37.770Z,40.77
2022-10-30T21:40:40.128Z,50.75
2022-10-30T21:43:43.161Z,50.67
2022-10-30T21:46:45.522Z,49.17
2022-10-30T21:49:48.050Z,48.25
2022-10-30T21:52:50.416Z,54.60
2022-10-30T21:55:52.822Z,53.28
2022-10-30T21:58:56.478Z,58.47
2022-10-30T22:01:58.978Z,51.85
2022-10-30T22:05:01.413Z,57.10
2022-10-30T22:08:03.941Z,51.80
2022-10-30T22:11:10.836Z,54.45
2022-10-30T22:14:13.370Z,53.17
2022-10-30T22:17:15.879Z,55.08
2022-10-30T22:20:18.433Z,57.45
2022-10-30T22:23:20.880Z,57.43
2022-10-30T22:26:23.890Z,55.88
2022-10-30T22:29:26.227Z,58.35
2022-10-30T22:32:28.652Z,61.17
2022-10-30T22:35:31.004Z,60.92
2022-10-30T22:38:34.180Z,57.10
2022-10-30T22:41:38.272Z,60.25
2022-10-30T22:44:40.907Z,58.60
2022-10-30T22:47:43.266Z,59.92
2022-10-30T22:50:45.612Z,60.17
2022-10-30T22:53:56.342Z,64.70
2022-10-30T22:57:01.225Z,62.35
2022-10-30T23:00:05.821Z,57.47
2022-10-30T23:03:08.655Z,57.97
2022-10-30T23:06:11.786Z,62.30
2022-10-30T23:09:19.463Z,61.17
2022-10-30T23:12:21.871Z,58.92
2022-10-30T23:15:24.726Z,58.17
2022-10-30T23:18:27.203Z,61.47
2022-10-30T23:21:31.796Z,61.88
2022-10-30T23:24:34.242Z,56.90
2022-10-30T23:27:36.623Z,57.92
2022-10-30T23:30:42.503Z,63.65
2022-10-30T23:33:49.659Z,55.58
2022-10-30T23:36:53.519Z,58.92
2022-10-30T23:39:57.892Z,52.60
2022-10-30T23:43:00.707Z,57.05
2022-10-30T23:46:03.338Z,55.40
2022-10-30T23:49:05.987Z,55.78
2022-10-30T23:52:08.364Z,61.63
2022-10-30T23:55:10.873Z,53.30
2022-10-30T23:58:13.276Z,61.97
